Terminal Aerodrome Forecast
Issued by NWS

Home | Current Version | Previous Version | Text Only | Print | Product List | Glossary On
Versions: 1 2 3 4 5 6 7 8 9 10 11 12 13 14 15 16 17
830
FTUS44 KJAN 201740
TAFHKS
TAF
KHKS 201740Z 2018/2118 19012KT P6SM FEW030
     FM210600 18004KT P6SM OVC015
     FM210900 17008KT P6SM VCTS BKN015CB BKN100
     FM211200 14004KT 4SM -RA BR OVC007
     FM211700 19007KT P6SM OVC007=

USA.gov is the U.S. government's official web portal to all federal, state and local government web resources and services.